Time;durP1;ratioP1;P1;durP2;ratioP2;P2;SDS_P1;SDS_P2;PMS_P1;PMS_P2;Temp;Humidity;BMP_temperature;BMP_pressure;BME280_temperature;BME280_humidity;BME280_pressure;Samples;Min_cycle;Max_cycle;Signal;HPM_P1;HPM_P2
2022/05/21 00:01:20;;;;;;;8.30;3.47;;;11.40;99.90;;;;;;5038689;28;20067;-71
2022/05/21 00:03:45;;;;;;;8.17;3.43;;;11.50;99.90;;;;;;5025112;28;20353;-71
2022/05/21 00:06:11;;;;;;;7.03;3.17;;;11.40;99.90;;;;;;5024072;28;20040;-71
2022/05/21 00:08:36;;;;;;;5.37;3.30;;;11.50;99.90;;;;;;5041410;28;20047;-71
2022/05/21 00:11:03;;;;;;;6.17;3.50;;;11.40;99.90;;;;;;5029964;28;20048;-71
2022/05/21 00:13:29;;;;;;;6.15;3.70;;;11.50;99.90;;;;;;5044016;28;20496;-71
2022/05/21 00:15:54;;;;;;;6.88;3.38;;;11.50;99.90;;;;;;5043985;28;20045;-71
2022/05/21 00:18:20;;;;;;;7.87;4.00;;;11.50;99.90;;;;;;5048267;28;20103;-72
2022/05/21 00:20:49;;;;;;;7.20;4.27;;;11.50;99.90;;;;;;5042629;28;20371;-71
2022/05/21 00:23:26;;;;;;;9.55;4.45;;;11.50;99.90;;;;;;5050385;28;20271;-71
2022/05/21 00:26:07;;;;;;;9.32;4.70;;;11.60;99.90;;;;;;5050751;28;20508;-71
2022/05/21 00:28:34;;;;;;;9.25;5.07;;;11.60;99.90;;;;;;5045095;28;20045;-71
2022/05/21 00:31:00;;;;;;;13.80;5.68;;;11.60;99.90;;;;;;5030988;28;20036;-71
2022/05/21 00:33:27;;;;;;;9.63;4.60;;;11.70;99.90;;;;;;5047807;28;20684;-71
2022/05/21 00:35:53;;;;;;;13.48;5.82;;;11.70;99.90;;;;;;5030309;28;20448;-71
2022/05/21 00:38:19;;;;;;;10.77;5.57;;;11.80;99.90;;;;;;5034457;28;20044;-71
2022/05/21 00:40:46;;;;;;;11.32;5.88;;;11.80;99.90;;;;;;5038400;28;20548;-71
2022/05/21 00:43:37;;;;;;;13.52;5.68;;;11.90;99.90;;;;;;5029329;28;20045;-72
2022/05/21 00:46:05;;;;;;;11.75;6.43;;;11.90;99.90;;;;;;5012919;28;20118;-71
2022/05/21 00:48:33;;;;;;;11.73;5.85;;;12.00;99.90;;;;;;5040033;28;20065;-71
2022/05/21 00:51:00;;;;;;;14.35;6.13;;;12.00;99.90;;;;;;5035147;28;20392;-71
2022/05/21 00:53:27;;;;;;;;;;;12.10;99.90;;;;;;5052863;28;20086;-71
2022/05/21 00:55:53;;;;;;;13.18;6.35;;;12.10;99.90;;;;;;5051691;28;20875;-71
2022/05/21 01:01:07;;;;;;;15.18;6.07;;;12.20;99.90;;;;;;5046640;28;20497;-71
2022/05/21 01:03:32;;;;;;;9.82;5.80;;;12.30;99.90;;;;;;5010155;28;20040;-71
2022/05/21 01:06:02;;;;;;;11.43;6.25;;;12.30;99.90;;;;;;5000812;28;20041;-72
2022/05/21 01:08:28;;;;;;;12.98;6.88;;;12.40;99.90;;;;;;5047415;28;20041;-71
2022/05/21 01:10:57;;;;;;;20.80;6.55;;;12.40;99.90;;;;;;5044513;28;20098;-71
2022/05/21 01:13:27;;;;;;;14.20;6.85;;;12.50;99.90;;;;;;5020357;28;20128;-71
2022/05/21 01:15:54;;;;;;;10.25;5.88;;;12.50;99.90;;;;;;5040626;28;20129;-72
2022/05/21 01:18:21;;;;;;;10.40;5.13;;;12.50;99.90;;;;;;5006672;28;20414;-71
2022/05/21 01:20:52;;;;;;;10.55;5.10;;;12.60;99.90;;;;;;5044971;28;20033;-72
2022/05/21 01:23:19;;;;;;;11.57;5.47;;;12.60;99.90;;;;;;5042347;28;20738;-72
2022/05/21 01:25:47;;;;;;;11.48;5.70;;;12.60;99.90;;;;;;5024753;28;20041;-72
2022/05/21 01:28:15;;;;;;;6.65;4.22;;;12.70;99.90;;;;;;5023103;28;20047;-71
2022/05/21 01:30:53;;;;;;;9.07;4.45;;;12.70;99.90;;;;;;5047652;28;20044;-71
2022/05/21 01:33:21;;;;;;;9.85;4.53;;;12.70;99.90;;;;;;5037837;28;20262;-72
2022/05/21 01:35:47;;;;;;;10.27;4.82;;;12.70;99.90;;;;;;5020115;28;20120;-72
2022/05/21 01:38:16;;;;;;;11.93;4.80;;;12.70;99.90;;;;;;5043464;28;20484;-72
2022/05/21 01:40:42;;;;;;;10.02;5.20;;;12.70;99.90;;;;;;5031067;28;20040;-71
2022/05/21 01:45:52;;;;;;;9.23;4.85;;;12.80;99.90;;;;;;5021167;28;20064;-71
2022/05/21 01:48:21;;;;;;;7.23;4.77;;;12.80;99.90;;;;;;5038562;28;20113;-71
2022/05/21 01:50:48;;;;;;;10.00;4.70;;;12.80;99.90;;;;;;5039353;28;20752;-71
2022/05/21 01:53:14;;;;;;;9.65;5.15;;;12.80;99.90;;;;;;5035345;28;20064;-71
2022/05/21 01:55:41;;;;;;;10.35;5.15;;;12.80;99.90;;;;;;5046760;28;20052;-71
2022/05/21 01:58:06;;;;;;;12.98;4.75;;;12.90;99.90;;;;;;5017449;28;20049;-71
2022/05/21 02:00:32;;;;;;;18.42;5.65;;;12.80;99.90;;;;;;5021001;28;20090;-71
2022/05/21 02:02:57;;;;;;;10.20;5.07;;;12.90;99.90;;;;;;5022658;28;20049;-71
2022/05/21 02:05:23;;;;;;;13.63;4.53;;;12.90;99.90;;;;;;5039970;28;20416;-71
2022/05/21 02:07:49;;;;;;;8.63;4.60;;;12.90;99.90;;;;;;5042653;28;20079;-71
2022/05/21 02:10:14;;;;;;;13.90;4.77;;;12.90;99.90;;;;;;5038671;28;20398;-71
2022/05/21 02:12:40;;;;;;;11.93;4.33;;;12.90;99.90;;;;;;5040584;28;20577;-71
2022/05/21 02:15:06;;;;;;;8.90;3.63;;;12.90;99.90;;;;;;5047038;28;20109;-71
2022/05/21 02:17:32;;;;;;;;;;;13.00;99.90;;;;;;5011786;28;20055;-71
2022/05/21 02:19:58;;;;;;;8.10;3.10;;;13.00;99.90;;;;;;5037670;28;20401;-71
2022/05/21 02:22:23;;;;;;;7.40;3.17;;;13.00;99.90;;;;;;5043606;28;20059;-71
2022/05/21 02:24:49;;;;;;;9.98;3.10;;;13.00;99.90;;;;;;5039102;28;20120;-71
2022/05/21 02:27:15;;;;;;;11.10;3.07;;;13.00;99.90;;;;;;5036943;28;20064;-72
2022/05/21 02:29:42;;;;;;;13.48;3.13;;;13.10;99.90;;;;;;5042977;28;20481;-71
2022/05/21 02:32:11;;;;;;;9.65;2.88;;;13.10;99.90;;;;;;5028460;28;20489;-71
2022/05/21 02:34:36;;;;;;;9.65;3.67;;;13.10;99.90;;;;;;5019784;28;20511;-72
2022/05/21 02:39:47;;;;;;;9.05;3.10;;;13.10;99.90;;;;;;5019574;28;20494;-71
2022/05/21 02:44:57;;;;;;;6.90;2.42;;;13.00;99.90;;;;;;5036169;28;20040;-71
2022/05/21 02:47:24;;;;;;;9.70;2.80;;;13.00;99.90;;;;;;5036183;28;20037;-71
2022/05/21 02:49:49;;;;;;;4.72;2.38;;;13.00;99.90;;;;;;5044790;28;20170;-71
2022/05/21 02:52:15;;;;;;;3.87;2.23;;;13.00;99.90;;;;;;5040311;28;20508;-71
2022/05/21 02:54:41;;;;;;;6.40;2.37;;;13.00;99.90;;;;;;5039307;28;20398;-71
2022/05/21 02:57:09;;;;;;;9.43;2.47;;;13.00;99.90;;;;;;5039292;28;20078;-71
2022/05/21 02:59:38;;;;;;;8.10;2.35;;;13.10;99.90;;;;;;5027589;28;20067;-71
2022/05/21 03:02:05;;;;;;;7.80;2.22;;;13.10;99.90;;;;;;5024608;28;20044;-71
2022/05/21 03:04:31;;;;;;;11.43;2.65;;;13.00;99.90;;;;;;5021954;28;20292;-71
2022/05/21 03:06:56;;;;;;;6.72;2.30;;;13.10;99.90;;;;;;5022829;28;20555;-71
2022/05/21 03:12:08;;;;;;;6.28;2.60;;;13.10;99.90;;;;;;5021828;28;20441;-71
2022/05/21 03:14:33;;;;;;;;;;;13.10;99.90;;;;;;5033838;28;20099;-71
2022/05/21 03:16:59;;;;;;;12.27;2.55;;;13.20;99.90;;;;;;5025202;28;19928;-71
2022/05/21 03:19:30;;;;;;;8.88;2.42;;;13.20;99.90;;;;;;5043678;28;20324;-71
2022/05/21 03:21:57;;;;;;;14.50;3.60;;;13.20;99.90;;;;;;5035349;28;20481;-71
2022/05/21 03:24:23;;;;;;;4.55;1.92;;;13.20;99.90;;;;;;5017741;28;20033;-71
2022/05/21 03:26:48;;;;;;;13.07;2.30;;;13.20;99.90;;;;;;5037479;28;20056;-71
2022/05/21 03:29:14;;;;;;;8.17;3.00;;;13.20;99.90;;;;;;5035467;28;20036;-71
2022/05/21 03:31:39;;;;;;;7.53;2.40;;;13.20;99.90;;;;;;5036670;28;20037;-71
2022/05/21 03:34:05;;;;;;;10.23;2.80;;;13.20;99.90;;;;;;5025453;28;20549;-71
2022/05/21 03:36:31;;;;;;;5.53;2.37;;;13.30;99.90;;;;;;5034145;28;20045;-71
2022/05/21 03:38:57;;;;;;;10.93;2.88;;;13.30;99.90;;;;;;5020972;28;20342;-71
2022/05/21 03:41:23;;;;;;;9.60;2.92;;;13.30;99.90;;;;;;5032604;28;20478;-72
2022/05/21 03:43:50;;;;;;;;;;;13.30;99.90;;;;;;5024486;28;20450;-71
2022/05/21 03:46:15;;;;;;;7.30;1.88;;;13.30;99.90;;;;;;5035727;28;19921;-71
2022/05/21 03:48:41;;;;;;;5.10;1.63;;;13.30;99.90;;;;;;5036351;28;20482;-71
2022/05/21 03:51:07;;;;;;;6.65;2.25;;;13.40;99.90;;;;;;5041234;28;20040;-71
2022/05/21 03:53:33;;;;;;;9.98;2.13;;;13.40;99.90;;;;;;5027330;28;20032;-71
2022/05/21 03:55:59;;;;;;;;;;;13.30;99.90;;;;;;5039691;28;20037;-71
2022/05/21 03:58:24;;;;;;;10.52;1.88;;;13.40;99.90;;;;;;5041800;28;19940;-71
2022/05/21 04:00:50;;;;;;;7.10;2.20;;;13.40;99.90;;;;;;5029339;28;20045;-71
2022/05/21 04:03:16;;;;;;;6.07;1.87;;;13.40;99.90;;;;;;5047402;28;20115;-71
2022/05/21 04:05:42;;;;;;;9.40;2.35;;;13.40;99.90;;;;;;5041270;28;20036;-71
2022/05/21 04:08:08;;;;;;;12.57;2.45;;;13.40;99.90;;;;;;5043287;28;20056;-71
2022/05/21 04:10:33;;;;;;;6.95;1.85;;;13.30;99.90;;;;;;5037421;28;20072;-71
2022/05/21 04:12:59;;;;;;;5.80;2.10;;;13.30;99.90;;;;;;5025864;28;20080;-71
2022/05/21 04:15:25;;;;;;;8.23;1.70;;;13.30;99.90;;;;;;5021386;28;20132;-71
2022/05/21 04:17:55;;;;;;;11.13;2.47;;;13.30;99.90;;;;;;5045772;28;20048;-71
2022/05/21 04:20:23;;;;;;;2.67;1.50;;;13.30;99.90;;;;;;5029984;28;20092;-71
2022/05/21 04:22:49;;;;;;;8.65;2.22;;;13.30;99.90;;;;;;5013236;28;20663;-71
2022/05/21 04:25:15;;;;;;;;;;;13.30;99.90;;;;;;5022978;28;20084;-71
2022/05/21 04:27:41;;;;;;;7.28;2.50;;;13.30;99.90;;;;;;5023897;28;19959;-71
2022/05/21 04:30:19;;;;;;;4.97;1.48;;;13.30;99.90;;;;;;5005911;28;20107;-71
2022/05/21 04:32:45;;;;;;;8.82;1.98;;;13.30;99.90;;;;;;5025178;28;20076;-71
2022/05/21 04:35:12;;;;;;;8.75;2.20;;;13.30;99.90;;;;;;5024443;28;20473;-71
2022/05/21 04:37:39;;;;;;;4.50;2.05;;;13.30;99.90;;;;;;5036448;28;20521;-71
2022/05/21 04:40:07;;;;;;;5.03;1.90;;;13.30;99.90;;;;;;5021068;28;20072;-71
2022/05/21 04:42:33;;;;;;;4.28;1.45;;;13.30;99.90;;;;;;5026364;28;20382;-71
2022/05/21 04:44:58;;;;;;;5.30;1.98;;;13.30;99.90;;;;;;5045564;28;20040;-71
2022/05/21 04:47:24;;;;;;;5.50;1.73;;;13.30;99.90;;;;;;5017696;28;20124;-71
2022/05/21 04:49:50;;;;;;;8.52;1.73;;;13.30;99.90;;;;;;5028807;28;20037;-71
2022/05/21 04:52:15;;;;;;;3.83;1.63;;;13.30;99.90;;;;;;5031281;28;20162;-71
2022/05/21 04:54:41;;;;;;;6.33;1.80;;;13.30;99.90;;;;;;5024665;28;20307;-71
2022/05/21 04:57:06;;;;;;;11.87;2.70;;;13.30;99.90;;;;;;5043135;28;20043;-71
2022/05/21 04:59:32;;;;;;;6.97;1.50;;;13.30;99.90;;;;;;5042157;28;20576;-71
2022/05/21 05:01:58;;;;;;;6.82;1.88;;;13.40;99.90;;;;;;5029626;28;20358;-71
2022/05/21 05:04:24;;;;;;;8.60;1.67;;;13.40;99.90;;;;;;5038235;28;20045;-71
2022/05/21 05:06:50;;;;;;;6.13;1.55;;;13.40;99.90;;;;;;5041465;28;20052;-71
2022/05/21 05:09:19;;;;;;;7.32;1.70;;;13.40;99.90;;;;;;5043446;28;20155;-71
2022/05/21 05:11:46;;;;;;;8.77;1.88;;;13.40;99.90;;;;;;5028278;28;20053;-71
2022/05/21 05:14:11;;;;;;;;;;;13.40;99.90;;;;;;5024665;28;20098;-71
2022/05/21 05:16:37;;;;;;;11.38;1.95;;;13.40;99.90;;;;;;5041915;28;19948;-71
2022/05/21 05:19:02;;;;;;;6.65;2.05;;;13.40;99.90;;;;;;5046965;28;20056;-71
2022/05/21 05:21:28;;;;;;;5.85;1.48;;;13.40;99.90;;;;;;5045643;28;20200;-71
2022/05/21 05:23:54;;;;;;;9.13;1.70;;;13.40;99.90;;;;;;5042451;28;20120;-71
2022/05/21 05:26:22;;;;;;;7.07;1.70;;;13.40;99.90;;;;;;5021403;28;20041;-71
2022/05/21 05:28:48;;;;;;;9.93;1.20;;;13.40;99.90;;;;;;5040227;28;20438;-71
2022/05/21 05:31:14;;;;;;;7.82;2.20;;;13.40;99.90;;;;;;5025349;28;20434;-71
2022/05/21 05:33:40;;;;;;;12.20;2.42;;;13.50;99.90;;;;;;5041707;28;20540;-71
2022/05/21 05:36:06;;;;;;;7.07;2.00;;;13.50;99.90;;;;;;5042332;28;20040;-71
2022/05/21 05:38:32;;;;;;;7.30;1.80;;;13.50;99.90;;;;;;5024211;28;20079;-71
2022/05/21 05:40:58;;;;;;;6.67;1.77;;;13.50;99.90;;;;;;5032646;28;20096;-71
2022/05/21 05:43:24;;;;;;;5.15;1.25;;;13.50;99.90;;;;;;5099077;22;20092;-66
2022/05/21 05:45:51;;;;;;;5.88;1.77;;;13.50;99.90;;;;;;5028723;28;20592;-67
2022/05/21 05:48:18;;;;;;;7.82;1.67;;;13.50;99.90;;;;;;4997722;28;20089;-68
2022/05/21 05:50:43;;;;;;;;;;;13.50;99.90;;;;;;5020065;28;20114;-67
2022/05/21 05:53:09;;;;;;;8.02;1.48;;;13.60;99.90;;;;;;5035668;28;19916;-68
2022/05/21 05:55:36;;;;;;;13.30;2.10;;;13.60;99.90;;;;;;4993942;28;20423;-67
2022/05/21 05:59:48;;;;;;;14.63;1.77;;;13.60;99.90;;;;;;5029235;28;20042;-68
2022/05/21 06:00:47;;;;;;;6.13;1.65;;;13.60;99.90;;;;;;5030534;28;20053;-68
2022/05/21 06:03:12;;;;;;;4.60;1.30;;;13.60;99.90;;;;;;5031698;28;20029;-68
2022/05/21 06:05:38;;;;;;;5.73;1.37;;;13.70;99.90;;;;;;5031642;28;20111;-68
2022/05/21 06:08:05;;;;;;;9.32;1.80;;;13.70;99.90;;;;;;5034493;28;20371;-68
2022/05/21 06:10:35;;;;;;;3.80;1.23;;;13.70;99.90;;;;;;5013621;28;20119;-68
2022/05/21 06:13:01;;;;;;;7.70;2.22;;;13.70;99.90;;;;;;5034116;28;20548;-67
2022/05/21 06:15:26;;;;;;;11.00;2.40;;;13.70;99.90;;;;;;5009546;28;20038;-68
2022/05/21 06:17:53;;;;;;;9.07;1.45;;;13.70;99.90;;;;;;5009999;28;20445;-68
2022/05/21 06:20:24;;;;;;;10.25;2.08;;;13.70;99.90;;;;;;5007113;28;20030;-67
2022/05/21 06:22:50;;;;;;;6.43;1.58;;;13.80;99.90;;;;;;5029732;28;20521;-68
2022/05/21 06:25:19;;;;;;;6.78;1.50;;;13.80;99.90;;;;;;5015552;28;20108;-67
2022/05/21 06:27:46;;;;;;;7.95;1.88;;;13.90;99.90;;;;;;5025235;28;20455;-68
2022/05/21 06:30:12;;;;;;;7.68;1.58;;;13.80;99.90;;;;;;5002821;28;20167;-68
2022/05/21 06:32:38;;;;;;;7.05;1.60;;;13.90;99.90;;;;;;5028941;28;20108;-68
2022/05/21 06:35:05;;;;;;;5.53;1.58;;;13.90;99.90;;;;;;5027276;28;20140;-67
2022/05/21 06:37:31;;;;;;;7.43;2.00;;;13.90;99.90;;;;;;5022286;28;20133;-68
2022/05/21 06:39:56;;;;;;;9.77;1.80;;;13.90;99.90;;;;;;5005747;28;20048;-68
2022/05/21 06:42:22;;;;;;;6.30;1.50;;;14.00;99.90;;;;;;5005727;28;20421;-67
2022/05/21 06:44:48;;;;;;;9.13;1.80;;;13.90;99.90;;;;;;5027587;28;20068;-68
2022/05/21 06:47:13;;;;;;;8.40;1.50;;;14.00;99.90;;;;;;5024448;28;20030;-68
2022/05/21 06:49:39;;;;;;;7.70;1.90;;;14.00;99.90;;;;;;5023465;28;20285;-68
2022/05/21 06:52:05;;;;;;;7.95;1.60;;;14.00;99.90;;;;;;5023478;28;20131;-68
2022/05/21 06:54:31;;;;;;;8.45;1.50;;;14.00;99.90;;;;;;5033980;28;20049;-68
2022/05/21 06:56:57;;;;;;;4.15;1.60;;;14.00;99.90;;;;;;4989082;28;20060;-68
2022/05/21 06:59:22;;;;;;;8.70;1.30;;;14.00;99.90;;;;;;5011307;28;20045;-68
2022/05/21 07:01:48;;;;;;;6.40;1.67;;;14.10;99.90;;;;;;5026321;28;20362;-68
2022/05/21 07:04:14;;;;;;;5.18;2.10;;;14.10;99.90;;;;;;5026827;28;20279;-68
2022/05/21 07:09:26;;;;;;;3.55;1.67;;;14.20;99.90;;;;;;5020076;28;20391;-69
2022/05/21 07:11:52;;;;;;;5.35;1.70;;;14.20;99.90;;;;;;5022847;28;20041;-68
2022/05/21 07:14:19;;;;;;;10.95;1.52;;;14.10;99.90;;;;;;5025517;28;20083;-68
2022/05/21 07:16:45;;;;;;;4.47;1.77;;;14.20;99.90;;;;;;5023424;28;20471;-68
2022/05/21 07:19:11;;;;;;;6.00;1.20;;;14.20;99.90;;;;;;5009418;28;20534;-68
2022/05/21 07:21:37;;;;;;;7.60;1.92;;;14.20;99.90;;;;;;5006663;28;20127;-68
2022/05/21 07:24:03;;;;;;;6.03;1.20;;;14.20;99.90;;;;;;5006907;28;20038;-69
2022/05/21 07:26:29;;;;;;;7.88;1.52;;;14.20;99.90;;;;;;5018714;28;20033;-68
2022/05/21 07:28:57;;;;;;;9.05;2.42;;;14.30;99.90;;;;;;5013070;28;20037;-69
2022/05/21 07:31:23;;;;;;;4.00;1.73;;;14.40;99.90;;;;;;5026367;28;20435;-68
2022/05/21 07:33:48;;;;;;;10.88;2.13;;;14.40;99.90;;;;;;5026469;28;20156;-68
2022/05/21 07:36:14;;;;;;;6.40;2.30;;;14.50;99.90;;;;;;5024500;28;20508;-67
2022/05/21 07:38:39;;;;;;;9.73;1.90;;;14.50;99.90;;;;;;5027092;28;20272;-67
2022/05/21 07:41:06;;;;;;;9.57;1.70;;;14.50;99.90;;;;;;4984677;28;20555;-68
2022/05/21 07:43:31;;;;;;;6.88;1.77;;;14.50;99.90;;;;;;5027100;28;20041;-68
2022/05/21 07:45:58;;;;;;;3.28;1.77;;;14.50;99.90;;;;;;5006728;28;20047;-68
2022/05/21 07:48:24;;;;;;;4.20;2.17;;;14.50;99.90;;;;;;5024263;28;20041;-68
2022/05/21 07:50:53;;;;;;;5.97;1.50;;;14.60;99.90;;;;;;5025999;28;20033;-68
2022/05/21 07:53:27;;;;;;;6.68;1.65;;;14.60;99.90;;;;;;5029166;28;20045;-68
2022/05/21 07:55:54;;;;;;;11.70;1.85;;;14.60;99.90;;;;;;5026558;28;20108;-68
2022/05/21 07:58:21;;;;;;;7.28;1.52;;;14.60;99.90;;;;;;5023592;28;20421;-68
2022/05/21 08:00:47;;;;;;;9.38;2.83;;;14.70;99.90;;;;;;5004751;28;20044;-68
2022/05/21 08:03:13;;;;;;;9.52;1.92;;;14.70;99.90;;;;;;5030857;28;20497;-68
2022/05/21 08:05:41;;;;;;;3.95;1.85;;;14.70;99.90;;;;;;5031415;28;20033;-67
2022/05/21 08:08:07;;;;;;;10.75;2.33;;;14.70;99.90;;;;;;5023922;28;20063;-67
2022/05/21 08:10:34;;;;;;;6.80;1.30;;;14.80;99.90;;;;;;5015067;28;20037;-67
2022/05/21 08:13:00;;;;;;;9.88;1.73;;;14.80;99.90;;;;;;5020195;28;20067;-71
2022/05/21 08:15:26;;;;;;;6.03;1.88;;;14.90;99.90;;;;;;5001147;28;20072;-72
2022/05/21 08:17:52;;;;;;;6.70;1.00;;;14.90;99.90;;;;;;5020935;28;20502;-71
2022/05/21 08:20:18;;;;;;;5.10;1.17;;;14.90;99.90;;;;;;5001531;28;20038;-71
2022/05/21 08:28:13;;;;;;;6.45;1.65;;;15.00;99.90;;;;;;5005796;28;20053;-71
2022/05/21 08:30:40;;;;;;;12.95;1.63;;;15.00;99.90;;;;;;5017184;28;20037;-71
2022/05/21 08:33:07;;;;;;;11.48;1.98;;;15.10;99.90;;;;;;5021449;28;20041;-71
2022/05/21 08:35:33;;;;;;;;;;;15.10;99.90;;;;;;5004559;28;20505;-71
2022/05/21 08:37:58;;;;;;;6.75;1.60;;;15.20;99.90;;;;;;5020463;28;20195;-71
2022/05/21 08:40:50;;;;;;;4.95;1.30;;;15.20;99.90;;;;;;5013333;28;20299;-71
2022/05/21 08:43:20;;;;;;;7.30;1.60;;;15.30;99.90;;;;;;5012135;28;20064;-71
2022/05/21 08:46:15;;;;;;;6.18;1.38;;;15.30;99.90;;;;;;5003991;28;20041;-71
2022/05/21 08:48:52;;;;;;;6.80;1.30;;;15.40;99.90;;;;;;5002017;28;20084;-71
2022/05/21 08:51:20;;;;;;;4.75;1.42;;;15.40;99.90;;;;;;5002128;28;20167;-71
2022/05/21 08:53:51;;;;;;;10.10;1.60;;;15.50;99.90;;;;;;5014085;28;20033;-71
2022/05/21 08:56:19;;;;;;;7.32;1.65;;;15.50;99.90;;;;;;5003554;28;20072;-71
2022/05/21 08:59:01;;;;;;;7.18;1.75;;;15.50;99.90;;;;;;5005711;28;20112;-71
2022/05/21 09:01:27;;;;;;;3.85;1.30;;;15.60;99.90;;;;;;5020750;28;20543;-71
2022/05/21 09:03:58;;;;;;;6.18;1.35;;;15.60;99.90;;;;;;5028512;28;20038;-71
2022/05/21 09:06:53;;;;;;;5.80;1.17;;;15.60;99.90;;;;;;5025575;28;20068;-71
2022/05/21 09:09:41;;;;;;;8.23;2.53;;;15.70;99.90;;;;;;4992002;28;20064;-71
2022/05/21 09:12:16;;;;;;;4.38;1.40;;;15.70;99.90;;;;;;5025573;28;20194;-72
2022/05/21 09:14:43;;;;;;;9.60;1.30;;;15.70;99.90;;;;;;5026879;28;20481;-76
2022/05/21 09:17:12;;;;;;;6.80;1.13;;;15.60;99.90;;;;;;4985520;28;20037;-71
2022/05/21 09:19:42;;;;;;;7.55;1.20;;;15.60;99.90;;;;;;5010656;28;20419;-71
2022/05/21 09:22:13;;;;;;;5.38;1.75;;;15.50;99.90;;;;;;5020887;28;20042;-71
2022/05/21 09:24:44;;;;;;;4.88;1.15;;;15.60;99.90;;;;;;5009643;28;20050;-71
2022/05/21 09:27:27;;;;;;;3.67;1.00;;;15.70;99.90;;;;;;5029108;28;20401;-71
2022/05/21 09:30:27;;;;;;;8.55;1.20;;;15.80;99.90;;;;;;5022556;28;20503;-72
2022/05/21 09:33:00;;;;;;;2.35;1.00;;;16.00;99.90;;;;;;5008638;28;20053;-71
2022/05/21 09:35:29;;;;;;;4.47;1.35;;;16.10;99.90;;;;;;5025504;28;20057;-70
2022/05/21 09:37:58;;;;;;;6.72;1.45;;;16.10;99.90;;;;;;5009572;28;20045;-70
2022/05/21 09:40:36;;;;;;;3.30;1.42;;;16.00;99.90;;;;;;5022318;28;20502;-71
2022/05/21 09:46:22;;;;;;;7.75;1.23;;;16.00;99.90;;;;;;5029417;28;20460;-71
2022/05/21 09:48:50;;;;;;;7.20;1.45;;;15.90;99.90;;;;;;5022343;28;20050;-71
2022/05/21 09:51:31;;;;;;;7.20;1.55;;;16.10;99.90;;;;;;4996107;28;20179;-71
2022/05/21 09:53:59;;;;;;;5.20;1.70;;;16.10;99.90;;;;;;5027562;28;20529;-71
2022/05/21 09:56:31;;;;;;;5.30;1.33;;;16.10;99.90;;;;;;5029427;28;20037;-71
2022/05/21 09:59:09;;;;;;;7.07;1.33;;;16.10;99.90;;;;;;5007822;28;20041;-71
2022/05/21 10:01:46;;;;;;;5.88;1.20;;;16.20;99.90;;;;;;5029400;28;20047;-71
2022/05/21 10:04:15;;;;;;;4.07;1.08;;;16.30;99.90;;;;;;4985860;28;20045;-72
2022/05/21 10:06:54;;;;;;;5.28;1.42;;;16.50;99.90;;;;;;5004528;28;20632;-71
2022/05/21 10:12:30;;;;;;;5.93;1.50;;;16.60;99.90;;;;;;5028257;28;20441;-72
2022/05/21 10:15:11;;;;;;;11.98;1.67;;;16.50;99.90;;;;;;5024501;28;20049;-72
2022/05/21 10:17:41;;;;;;;5.85;1.13;;;16.30;99.90;;;;;;5012347;28;20036;-72
2022/05/21 10:20:21;;;;;;;7.47;1.65;;;16.30;99.90;;;;;;4990158;28;21092;-72
2022/05/21 10:23:13;;;;;;;9.27;1.65;;;16.20;99.90;;;;;;5026647;28;20370;-73
2022/05/21 10:26:06;;;;;;;6.85;1.20;;;16.30;99.90;;;;;;4988816;28;20045;-72
2022/05/21 10:29:04;;;;;;;8.45;1.95;;;16.30;99.90;;;;;;5010035;28;20029;-74
2022/05/21 10:31:48;;;;;;;4.43;1.08;;;16.30;99.90;;;;;;5025966;28;20045;-73
2022/05/21 10:34:48;;;;;;;8.10;1.95;;;16.10;99.90;;;;;;5023694;28;20487;-74
2022/05/21 10:37:32;;;;;;;6.97;1.40;;;16.00;99.90;;;;;;5015993;28;20061;-74
2022/05/21 10:40:18;;;;;;;7.60;1.55;;;16.10;99.90;;;;;;5006259;28;20124;-74
2022/05/21 10:43:21;;;;;;;5.05;1.17;;;16.20;99.90;;;;;;5017644;28;20041;-76
2022/05/21 10:46:13;;;;;;;8.50;1.42;;;16.30;99.90;;;;;;5007739;28;20041;-72
2022/05/21 10:48:47;;;;;;;4.93;1.27;;;16.50;99.90;;;;;;5018136;28;20045;-74
2022/05/21 10:51:25;;;;;;;3.75;1.05;;;16.60;99.90;;;;;;5015501;28;20410;-73
2022/05/21 10:54:24;;;;;;;4.40;1.45;;;16.70;99.90;;;;;;5025696;28;20030;-73
2022/05/21 10:57:27;;;;;;;3.22;1.13;;;16.70;99.90;;;;;;5022331;28;20042;-73
2022/05/21 11:00:19;;;;;;;4.45;1.35;;;17.00;99.90;;;;;;5026870;28;20041;-73
2022/05/21 11:02:44;;;;;;;5.53;1.33;;;17.10;99.90;;;;;;5017903;28;20060;-74
2022/05/21 11:05:41;;;;;;;4.55;1.10;;;17.20;99.90;;;;;;5028975;28;20037;-73
2022/05/21 11:08:27;;;;;;;5.82;1.73;;;17.30;99.90;;;;;;5006889;28;20033;-73
2022/05/21 11:11:17;;;;;;;11.77;1.48;;;17.40;99.90;;;;;;5013482;28;20072;-74
2022/05/21 11:14:02;;;;;;;5.55;1.17;;;17.50;99.90;;;;;;5024646;28;20123;-74
2022/05/21 11:16:43;;;;;;;5.28;1.25;;;17.50;99.90;;;;;;4999256;28;20056;-73
2022/05/21 11:19:34;;;;;;;7.90;1.30;;;17.50;99.90;;;;;;5023117;28;20125;-73
2022/05/21 11:22:07;;;;;;;3.70;1.08;;;17.50;99.90;;;;;;4999045;28;20823;-74
2022/05/21 11:24:42;;;;;;;4.78;1.13;;;17.40;99.90;;;;;;5020207;28;20387;-74
2022/05/21 11:27:37;;;;;;;7.68;1.50;;;17.50;99.90;;;;;;5020028;28;20049;-73
2022/05/21 11:30:19;;;;;;;5.10;1.10;;;17.60;99.90;;;;;;5006720;28;20049;-73
2022/05/21 11:38:38;;;;;;;5.65;1.25;;;17.70;99.90;;;;;;5006062;28;20049;-74
2022/05/21 11:41:24;;;;;;;7.22;1.55;;;17.70;99.90;;;;;;4992675;28;20046;-74
2022/05/21 11:47:08;;;;;;;6.03;1.40;;;17.20;99.90;;;;;;5023252;28;20041;-73
2022/05/21 11:49:41;;;;;;;3.35;1.02;;;17.10;99.90;;;;;;5019409;28;20037;-73
2022/05/21 11:52:26;;;;;;;9.13;1.38;;;17.10;99.90;;;;;;5017447;28;20041;-73
2022/05/21 11:54:54;;;;;;;9.35;1.08;;;17.00;99.90;;;;;;5021005;28;20087;-73
2022/05/21 11:57:41;;;;;;;5.20;1.27;;;16.80;99.90;;;;;;5005457;28;20374;-73
2022/05/21 12:00:11;;;;;;;7.15;1.60;;;16.70;99.90;;;;;;5019646;28;20121;-74
2022/05/21 12:02:38;;;;;;;5.07;1.85;;;16.60;99.90;;;;;;5006335;28;20055;-74
2022/05/21 12:05:08;;;;;;;5.88;1.30;;;16.60;99.90;;;;;;4998504;28;20479;-74
2022/05/21 12:07:40;;;;;;;6.68;1.45;;;16.60;99.90;;;;;;5003034;28;20054;-73
2022/05/21 12:10:54;;;;;;;8.93;3.25;;;16.50;99.90;;;;;;5014258;28;20045;-73
2022/05/21 12:13:22;;;;;;;6.53;1.20;;;16.60;99.90;;;;;;4972164;28;20085;-73
2022/05/21 12:15:52;;;;;;;9.48;1.35;;;16.60;99.90;;;;;;5029116;28;20055;-73
2022/05/21 12:18:38;;;;;;;6.80;1.10;;;16.80;99.90;;;;;;4991841;28;20107;-73
2022/05/21 12:21:07;;;;;;;4.32;1.00;;;17.00;99.90;;;;;;4988954;28;20045;-73
2022/05/21 12:23:32;;;;;;;6.57;0.88;;;17.10;99.90;;;;;;5009162;28;20033;-73
2022/05/21 12:26:08;;;;;;;5.50;1.15;;;17.20;99.90;;;;;;5004108;28;20099;-73
2022/05/21 12:29:03;;;;;;;8.88;0.95;;;17.30;99.90;;;;;;4994043;28;20069;-74
2022/05/21 12:31:45;;;;;;;6.15;1.30;;;17.30;99.90;;;;;;5024816;28;20045;-74
2022/05/21 12:34:22;;;;;;;4.95;0.88;;;17.30;99.90;;;;;;5002914;28;20372;-73
2022/05/21 12:37:06;;;;;;;4.72;1.00;;;17.20;99.90;;;;;;5026282;28;21837;-74
2022/05/21 12:39:53;;;;;;;4.75;1.77;;;17.20;99.90;;;;;;5024962;28;20033;-74
2022/05/21 12:42:32;;;;;;;7.45;1.17;;;17.10;99.90;;;;;;5013389;28;20494;-74
2022/05/21 12:44:58;;;;;;;4.28;1.13;;;17.10;99.90;;;;;;5008759;28;20152;-73
2022/05/21 12:47:32;;;;;;;7.25;0.85;;;17.20;99.90;;;;;;5019483;28;20445;-74
2022/05/21 12:50:00;;;;;;;3.08;0.85;;;17.40;99.90;;;;;;5027117;28;20076;-73
2022/05/21 12:52:52;;;;;;;3.45;1.25;;;17.60;99.90;;;;;;5004874;28;20064;-73
2022/05/21 12:55:30;;;;;;;5.78;1.08;;;17.60;99.90;;;;;;5023967;28;20076;-74
2022/05/21 12:58:16;;;;;;;6.45;1.38;;;17.50;99.90;;;;;;5026018;28;20103;-74
2022/05/21 13:00:52;;;;;;;3.38;1.20;;;17.40;99.90;;;;;;5024187;28;20321;-73
2022/05/21 13:03:20;;;;;;;4.53;1.23;;;17.40;99.90;;;;;;5023441;28;20040;-74
2022/05/21 13:05:59;;;;;;;4.72;1.23;;;17.40;99.90;;;;;;5008727;28;20045;-73
2022/05/21 13:08:27;;;;;;;5.72;1.27;;;17.60;99.90;;;;;;4984479;28;20048;-74
2022/05/21 13:10:57;;;;;;;4.15;0.98;;;17.60;99.90;;;;;;4941859;28;20084;-73
2022/05/21 13:13:24;;;;;;;3.60;0.80;;;17.60;99.90;;;;;;4970162;28;20045;-74
2022/05/21 13:15:57;;;;;;;4.57;0.85;;;17.40;99.90;;;;;;4957381;28;20049;-73
2022/05/21 13:18:43;;;;;;;6.10;1.15;;;17.50;99.90;;;;;;4950044;28;20789;-73
2022/05/21 13:21:24;;;;;;;4.88;1.08;;;17.60;99.90;;;;;;4964703;28;20188;-74
2022/05/21 13:24:02;;;;;;;4.75;1.08;;;17.70;99.90;;;;;;4950616;28;20835;-73
2022/05/21 13:26:31;;;;;;;3.28;0.93;;;17.70;99.90;;;;;;4935448;28;20536;-73
2022/05/21 13:29:20;;;;;;;4.80;1.00;;;17.60;99.90;;;;;;4936918;28;20054;-73
2022/05/21 13:31:48;;;;;;;5.55;1.48;;;17.70;99.90;;;;;;4940276;28;20049;-73
2022/05/21 13:34:16;;;;;;;6.10;1.50;;;17.80;99.90;;;;;;4929942;28;20552;-74
2022/05/21 13:36:48;;;;;;;5.20;1.88;;;17.60;99.90;;;;;;4936654;28;20049;-73
2022/05/21 13:39:26;;;;;;;6.30;1.30;;;17.60;99.90;;;;;;4917886;28;20046;-75
2022/05/21 13:41:52;;;;;;;7.78;1.35;;;17.50;99.90;;;;;;4941852;28;20041;-73
2022/05/21 13:44:24;;;;;;;6.85;1.38;;;17.40;99.90;;;;;;4913226;28;20037;-73